Time;durP1;ratioP1;P1;durP2;ratioP2;P2;SDS_P1;SDS_P2;PMS_P1;PMS_P2;Temp;Humidity;BMP_temperature;BMP_pressure;BME280_temperature;BME280_humidity;BME280_pressure;Samples;Min_cycle;Max_cycle;Signal;HPM_P1;HPM_P2
2022/12/08 00:01:45;;;;;;;107.25;59.42;;;-0.70;99.90;;;;;;5073456;28;20028;-66
2022/12/08 00:04:11;;;;;;;65.53;37.22;;;-0.80;99.90;;;;;;5073126;28;20548;-67
2022/12/08 00:09:33;;;;;;;37.72;18.55;;;-0.80;99.90;;;;;;5073080;28;20412;-66
2022/12/08 00:12:03;;;;;;;30.70;17.02;;;-0.70;99.90;;;;;;5073823;28;20021;-66
2022/12/08 00:14:30;;;;;;;27.25;16.63;;;-0.60;99.90;;;;;;5073473;28;20036;-67
2022/12/08 00:16:56;;;;;;;32.95;18.10;;;-0.50;99.90;;;;;;5072643;28;20016;-67
2022/12/08 00:19:23;;;;;;;48.95;26.95;;;-0.50;99.90;;;;;;5072706;28;20104;-66
2022/12/08 00:21:48;;;;;;;48.22;27.05;;;-0.40;99.90;;;;;;5073126;28;20107;-66
2022/12/08 00:24:14;;;;;;;43.33;22.13;;;-0.30;99.90;;;;;;5073637;28;20067;-67
2022/12/08 00:26:40;;;;;;;33.10;16.88;;;-0.20;99.90;;;;;;5073075;28;20027;-66
2022/12/08 00:29:05;;;;;;;54.55;25.30;;;-0.20;99.90;;;;;;5073075;28;20021;-67
2022/12/08 00:31:31;;;;;;;73.60;28.10;;;-0.20;99.90;;;;;;5072927;28;20040;-67
2022/12/08 00:33:58;;;;;;;73.53;26.40;;;-0.30;99.90;;;;;;5073174;28;20035;-66
2022/12/08 00:36:23;;;;;;;55.60;18.75;;;-0.30;99.90;;;;;;5072948;28;20020;-66
2022/12/08 00:38:49;;;;;;;53.17;18.23;;;-0.30;99.90;;;;;;5072880;28;20028;-67
2022/12/08 00:44:25;;;;;;;125.00;38.17;;;-0.40;99.90;;;;;;4991802;28;20058;-66
2022/12/08 00:46:50;;;;;;;111.18;48.58;;;-0.40;99.90;;;;;;4991591;28;20058;-66
2022/12/08 00:49:17;;;;;;;81.18;23.02;;;-0.40;99.90;;;;;;5029430;28;20589;-67
2022/12/08 00:51:43;;;;;;;115.22;56.03;;;-0.30;99.90;;;;;;5076749;28;20048;-67
2022/12/08 00:54:09;;;;;;;74.55;37.45;;;-0.20;99.90;;;;;;5076378;28;20035;-67
2022/12/08 00:56:35;;;;;;;51.40;26.55;;;0.00;99.90;;;;;;5076563;28;20035;-66
2022/12/08 00:59:03;;;;;;;167.60;37.15;;;-0.10;99.90;;;;;;5076283;28;20135;-67
2022/12/08 01:01:28;;;;;;;164.82;26.08;;;0.00;99.90;;;;;;5076540;28;20035;-66
2022/12/08 01:03:54;;;;;;;43.67;18.95;;;0.00;99.90;;;;;;5076617;28;20099;-66
2022/12/08 01:06:20;;;;;;;126.22;23.63;;;-0.10;99.90;;;;;;5075896;28;20474;-67
2022/12/08 01:08:45;;;;;;;59.67;21.42;;;0.00;99.90;;;;;;5076081;28;20119;-66
2022/12/08 01:11:15;;;;;;;97.68;24.83;;;0.00;99.90;;;;;;5075949;28;20021;-67
2022/12/08 01:13:41;;;;;;;268.80;34.85;;;0.00;99.90;;;;;;5076021;28;20075;-67
2022/12/08 01:16:08;;;;;;;168.70;31.88;;;0.00;99.90;;;;;;5075922;28;20108;-66
2022/12/08 01:18:34;;;;;;;48.90;20.02;;;0.00;99.90;;;;;;5076511;28;20075;-67
2022/12/08 01:21:07;;;;;;;40.25;19.50;;;0.10;99.90;;;;;;5076166;28;20427;-66
2022/12/08 01:23:33;;;;;;;44.05;19.95;;;0.00;99.90;;;;;;5075878;28;20394;-66
2022/12/08 01:26:07;;;;;;;206.38;28.95;;;0.00;99.90;;;;;;5075677;28;20021;-67
2022/12/08 01:28:33;;;;;;;147.90;27.92;;;0.10;99.90;;;;;;5076261;28;20020;-66
2022/12/08 01:31:00;;;;;;;50.67;21.52;;;0.00;99.90;;;;;;5075793;28;20096;-66
2022/12/08 01:33:26;;;;;;;41.35;20.10;;;0.00;99.90;;;;;;5075651;28;20027;-67
2022/12/08 01:35:54;;;;;;;50.83;20.05;;;0.00;99.90;;;;;;5075480;28;20017;-66
2022/12/08 01:38:20;;;;;;;95.20;22.38;;;0.00;99.90;;;;;;5075597;28;20021;-66
2022/12/08 01:40:46;;;;;;;40.08;20.33;;;0.00;99.90;;;;;;5076113;28;20032;-66
2022/12/08 01:43:16;;;;;;;38.58;20.00;;;0.00;99.90;;;;;;5074969;28;20021;-67
2022/12/08 01:45:41;;;;;;;36.70;20.30;;;0.00;99.90;;;;;;5075049;28;20024;-66
2022/12/08 01:48:26;;;;;;;53.88;21.00;;;-0.10;99.90;;;;;;5075574;28;20041;-66
2022/12/08 01:50:54;;;;;;;41.63;20.38;;;-0.10;99.90;;;;;;5075352;28;20479;-66
2022/12/08 01:53:28;;;;;;;134.00;26.20;;;-0.10;99.90;;;;;;5075292;28;20471;-66
2022/12/08 01:56:10;;;;;;;41.22;19.85;;;-0.20;99.90;;;;;;5075649;28;20021;-67
2022/12/08 02:01:36;;;;;;;42.60;20.00;;;-0.10;99.90;;;;;;5072658;28;20054;-67
2022/12/08 02:04:03;;;;;;;56.83;22.73;;;-0.10;99.90;;;;;;5075095;28;20029;-66
2022/12/08 02:06:34;;;;;;;49.35;21.35;;;-0.10;99.90;;;;;;5075088;28;20078;-65
2022/12/08 02:09:02;;;;;;;48.08;22.17;;;-0.10;99.90;;;;;;5075617;28;20024;-66
2022/12/08 02:11:28;;;;;;;41.35;22.55;;;-0.20;99.90;;;;;;5074751;28;20027;-66
2022/12/08 02:13:56;;;;;;;197.27;28.13;;;-0.20;99.90;;;;;;5074982;28;20028;-67
2022/12/08 02:16:43;;;;;;;60.05;24.02;;;-0.10;99.90;;;;;;5074738;28;20024;-66
2022/12/08 02:19:36;;;;;;;123.18;28.08;;;-0.20;99.90;;;;;;5074975;28;20039;-66
2022/12/08 02:22:20;;;;;;;53.00;25.13;;;-0.20;99.90;;;;;;5074881;28;20047;-66
2022/12/08 02:25:14;;;;;;;54.05;26.23;;;0.00;99.90;;;;;;5075006;28;20028;-66
2022/12/08 02:28:18;;;;;;;185.02;30.10;;;0.00;99.90;;;;;;5074537;28;20478;-66
2022/12/08 02:31:13;;;;;;;173.18;31.60;;;0.00;99.90;;;;;;5074801;28;20028;-66
2022/12/08 02:34:06;;;;;;;146.93;29.45;;;0.10;99.90;;;;;;4985900;28;20046;-67
2022/12/08 02:36:53;;;;;;;160.35;30.77;;;0.00;99.90;;;;;;5074327;28;20028;-66
2022/12/08 02:39:26;;;;;;;247.70;34.72;;;0.00;99.90;;;;;;5074783;28;20031;-67
2022/12/08 02:42:09;;;;;;;182.88;31.10;;;0.00;99.90;;;;;;5074648;28;20142;-66
2022/12/08 02:44:44;;;;;;;221.43;32.47;;;0.00;99.90;;;;;;5074172;28;20027;-66
2022/12/08 02:47:17;;;;;;;133.90;29.08;;;0.00;99.90;;;;;;5074317;28;20056;-66
2022/12/08 02:49:43;;;;;;;265.83;33.45;;;0.10;99.90;;;;;;5073703;28;20477;-67
2022/12/08 02:52:11;;;;;;;86.05;28.65;;;0.10;99.90;;;;;;5074131;28;20029;-67
2022/12/08 02:54:46;;;;;;;222.85;31.45;;;0.20;99.90;;;;;;5074281;28;20052;-67
2022/12/08 02:57:33;;;;;;;148.63;29.73;;;0.20;99.90;;;;;;5074060;28;20024;-66
2022/12/08 03:00:05;;;;;;;76.75;27.67;;;0.20;99.90;;;;;;5074124;28;20025;-66
2022/12/08 03:02:44;;;;;;;99.63;30.30;;;0.20;99.90;;;;;;5074514;28;20062;-67
2022/12/08 03:05:27;;;;;;;81.57;27.33;;;0.30;99.90;;;;;;5073840;28;20074;-67
2022/12/08 03:08:11;;;;;;;143.18;29.27;;;0.30;99.90;;;;;;5074276;28;20032;-66
2022/12/08 03:10:45;;;;;;;207.35;34.08;;;0.40;99.90;;;;;;5073810;28;20028;-67
2022/12/08 03:13:20;;;;;;;186.18;32.80;;;0.40;99.90;;;;;;5073869;28;20028;-67
2022/12/08 03:15:49;;;;;;;53.88;27.48;;;0.40;99.90;;;;;;5074074;28;20090;-66
2022/12/08 03:18:17;;;;;;;444.50;43.97;;;0.50;99.90;;;;;;5073732;28;20028;-67
2022/12/08 03:20:46;;;;;;;217.90;35.25;;;0.60;99.90;;;;;;5074040;28;20020;-67
2022/12/08 03:23:14;;;;;;;42.70;24.20;;;0.40;99.90;;;;;;5073854;28;20116;-66
2022/12/08 03:25:48;;;;;;;40.63;25.35;;;0.50;99.90;;;;;;5055867;28;20024;-66
2022/12/08 03:28:14;;;;;;;49.95;26.08;;;0.60;99.90;;;;;;5073562;28;20078;-66
2022/12/08 03:30:44;;;;;;;215.85;32.20;;;0.50;99.90;;;;;;5074013;28;20027;-67
2022/12/08 03:33:23;;;;;;;196.05;34.00;;;0.50;99.90;;;;;;5073445;28;20028;-66
2022/12/08 03:35:49;;;;;;;143.18;29.50;;;0.40;99.90;;;;;;5073750;28;20024;-66
2022/12/08 03:38:16;;;;;;;105.78;25.48;;;0.50;99.90;;;;;;5074284;28;20025;-67
2022/12/08 03:40:42;;;;;;;61.75;25.02;;;0.40;99.90;;;;;;5073562;28;20025;-67
2022/12/08 03:43:08;;;;;;;144.10;28.38;;;0.40;99.90;;;;;;5073654;28;20025;-66
2022/12/08 03:45:34;;;;;;;175.55;28.27;;;0.40;99.90;;;;;;5073263;28;20025;-66
2022/12/08 03:47:59;;;;;;;82.03;26.92;;;0.30;99.90;;;;;;5073319;28;20039;-67
2022/12/08 03:50:25;;;;;;;242.70;33.17;;;0.40;99.90;;;;;;5073489;28;20099;-66
2022/12/08 03:52:51;;;;;;;116.05;27.25;;;0.40;99.90;;;;;;5073410;28;20025;-66
2022/12/08 03:55:17;;;;;;;295.38;35.22;;;0.40;99.90;;;;;;5073417;28;20056;-67
2022/12/08 03:57:43;;;;;;;47.35;24.95;;;0.50;99.90;;;;;;5073159;28;20458;-66
2022/12/08 04:00:12;;;;;;;51.00;24.20;;;0.60;99.90;;;;;;5073176;28;20040;-67
2022/12/08 04:02:38;;;;;;;184.85;30.08;;;0.50;99.90;;;;;;5073578;28;20116;-67
2022/12/08 04:05:04;;;;;;;131.85;30.00;;;0.30;99.90;;;;;;5073419;28;20064;-66
2022/12/08 04:07:30;;;;;;;121.15;30.75;;;0.40;99.90;;;;;;5073268;28;20505;-66
2022/12/08 04:09:55;;;;;;;38.47;24.40;;;0.40;99.90;;;;;;5073407;28;20377;-66
2022/12/08 04:12:21;;;;;;;84.10;25.02;;;0.40;99.90;;;;;;5073189;28;20024;-66
2022/12/08 04:14:46;;;;;;;127.07;28.30;;;0.50;99.90;;;;;;5073457;28;20093;-66
2022/12/08 04:17:12;;;;;;;39.40;23.42;;;0.70;99.90;;;;;;5073525;28;20024;-67
2022/12/08 04:19:39;;;;;;;64.72;25.95;;;0.50;99.90;;;;;;5073156;28;20555;-66
2022/12/08 04:22:05;;;;;;;38.35;23.83;;;0.60;99.90;;;;;;5073502;28;20048;-67
2022/12/08 04:24:31;;;;;;;37.85;23.90;;;0.60;99.90;;;;;;5073730;28;20478;-67
2022/12/08 04:26:56;;;;;;;40.00;22.17;;;0.50;99.90;;;;;;5076722;28;20043;-67
2022/12/08 04:29:22;;;;;;;51.45;22.98;;;0.50;99.90;;;;;;5077328;28;20024;-66
2022/12/08 04:31:48;;;;;;;162.93;29.48;;;0.40;99.90;;;;;;5076728;28;20057;-67
2022/12/08 04:34:14;;;;;;;41.72;24.65;;;0.30;99.90;;;;;;5077138;28;20020;-66
2022/12/08 04:36:39;;;;;;;39.45;24.88;;;0.20;99.90;;;;;;5076681;28;20078;-67
2022/12/08 04:39:05;;;;;;;38.75;23.30;;;0.30;99.90;;;;;;5076735;28;20025;-66
2022/12/08 04:41:31;;;;;;;225.90;33.90;;;0.20;99.90;;;;;;5076612;28;20029;-67
2022/12/08 04:43:57;;;;;;;125.78;27.73;;;0.20;99.90;;;;;;5076593;28;20039;-66
2022/12/08 04:46:22;;;;;;;66.75;25.80;;;0.30;99.90;;;;;;5076691;28;20031;-67
2022/12/08 04:48:48;;;;;;;183.55;31.05;;;0.40;99.90;;;;;;5077008;28;20021;-66
2022/12/08 04:51:16;;;;;;;163.18;30.45;;;0.40;99.90;;;;;;5076680;28;20111;-67
2022/12/08 04:53:42;;;;;;;330.95;36.25;;;0.40;99.90;;;;;;5076329;28;20520;-67
2022/12/08 04:56:15;;;;;;;59.67;25.50;;;0.30;99.90;;;;;;5076264;28;20021;-67
2022/12/08 04:58:41;;;;;;;103.88;26.73;;;0.50;99.90;;;;;;5076524;28;20027;-67
2022/12/08 05:01:07;;;;;;;66.30;25.77;;;0.40;99.90;;;;;;5076089;28;20056;-67
2022/12/08 05:03:33;;;;;;;35.65;23.60;;;0.40;99.90;;;;;;5076216;28;20089;-66
2022/12/08 05:05:59;;;;;;;54.20;22.98;;;0.40;99.90;;;;;;5076414;28;20029;-67
2022/12/08 05:08:25;;;;;;;74.93;24.30;;;0.50;99.90;;;;;;5076144;28;20017;-67
2022/12/08 05:10:51;;;;;;;156.18;28.95;;;0.40;99.90;;;;;;5076465;28;20103;-67
2022/12/08 05:13:16;;;;;;;64.50;23.27;;;0.40;99.90;;;;;;5075813;28;20039;-67
2022/12/08 05:15:42;;;;;;;226.02;31.17;;;0.40;99.90;;;;;;5075823;28;20098;-66
2022/12/08 05:18:08;;;;;;;242.25;33.13;;;0.50;99.90;;;;;;5076424;28;20021;-67
2022/12/08 05:20:34;;;;;;;210.25;31.25;;;0.40;99.90;;;;;;5075881;28;20029;-67
2022/12/08 05:23:00;;;;;;;167.10;28.55;;;0.30;99.90;;;;;;5076077;28;20047;-67
2022/12/08 05:25:26;;;;;;;259.67;35.60;;;0.10;99.90;;;;;;5075392;28;20024;-66
2022/12/08 05:27:51;;;;;;;99.82;27.95;;;0.10;99.90;;;;;;5075707;28;20060;-66
2022/12/08 05:30:17;;;;;;;174.70;32.08;;;0.10;99.90;;;;;;5076104;28;20153;-67
2022/12/08 05:32:43;;;;;;;167.55;28.80;;;0.20;99.90;;;;;;5075438;28;20017;-66
2022/12/08 05:35:09;;;;;;;156.77;30.73;;;0.10;99.90;;;;;;5075437;28;20024;-67
2022/12/08 05:37:34;;;;;;;83.93;28.50;;;0.20;99.90;;;;;;5076030;28;20028;-67
2022/12/08 05:40:00;;;;;;;46.88;26.15;;;0.10;99.90;;;;;;5075838;28;20031;-67
2022/12/08 05:42:25;;;;;;;92.13;28.00;;;0.10;99.90;;;;;;5075495;28;20516;-67
2022/12/08 05:44:51;;;;;;;47.65;24.38;;;0.00;99.90;;;;;;5057473;28;20514;-66
2022/12/08 05:47:17;;;;;;;126.50;28.08;;;0.10;99.90;;;;;;5075461;28;20104;-66
2022/12/08 05:49:42;;;;;;;68.93;24.15;;;0.10;99.90;;;;;;5075367;28;20036;-66
2022/12/08 05:52:08;;;;;;;35.22;20.35;;;0.00;99.90;;;;;;5075569;28;20024;-66
2022/12/08 05:54:34;;;;;;;133.23;25.92;;;0.00;99.90;;;;;;5075514;28;20025;-67
2022/12/08 05:56:59;;;;;;;58.70;23.13;;;-0.20;99.90;;;;;;5075345;28;20073;-66
2022/12/08 05:59:25;;;;;;;87.90;25.98;;;-0.10;99.90;;;;;;5075575;28;20056;-67
2022/12/08 06:01:51;;;;;;;88.15;27.35;;;-0.10;99.90;;;;;;5074892;28;20052;-66
2022/12/08 06:04:16;;;;;;;47.03;22.63;;;-0.10;99.90;;;;;;5075091;28;20525;-67
2022/12/08 06:06:42;;;;;;;85.80;24.60;;;0.00;99.90;;;;;;5075019;28;20025;-66
2022/12/08 06:09:08;;;;;;;37.88;22.92;;;0.00;99.90;;;;;;5075031;28;20074;-66
2022/12/08 06:11:34;;;;;;;49.80;23.95;;;0.00;99.90;;;;;;5074952;28;20041;-67
2022/12/08 06:14:02;;;;;;;94.75;24.10;;;0.00;99.90;;;;;;5074671;28;20025;-67
2022/12/08 06:16:28;;;;;;;106.43;28.50;;;-0.10;99.90;;;;;;5074751;28;20081;-67
2022/12/08 06:18:54;;;;;;;103.00;27.25;;;-0.10;99.90;;;;;;5074898;28;20028;-66
2022/12/08 06:21:20;;;;;;;60.85;25.45;;;-0.20;99.90;;;;;;5074903;28;20028;-66
2022/12/08 06:23:50;;;;;;;45.35;22.67;;;-0.20;99.90;;;;;;5075384;28;20025;-67
2022/12/08 06:26:16;;;;;;;;;;;-0.20;99.90;;;;;;5074864;28;20071;-67
2022/12/08 06:28:42;;;;;;;66.05;23.20;;;-0.10;99.90;;;;;;5074289;28;19948;-67
2022/12/08 06:31:26;;;;;;;80.80;24.88;;;-0.30;99.90;;;;;;5074496;28;20039;-67
2022/12/08 06:33:52;;;;;;;170.43;27.60;;;-0.30;99.90;;;;;;5075134;28;20021;-67
2022/12/08 06:36:20;;;;;;;120.40;28.27;;;-0.40;99.90;;;;;;5074495;28;20024;-66
2022/12/08 06:38:46;;;;;;;101.35;28.08;;;-0.30;99.90;;;;;;5074382;28;20055;-67
2022/12/08 06:41:12;;;;;;;118.50;26.15;;;-0.10;99.90;;;;;;5074927;28;20059;-67
2022/12/08 06:43:38;;;;;;;95.13;25.35;;;-0.20;99.90;;;;;;5074657;28;20074;-67
2022/12/08 06:46:09;;;;;;;103.28;26.20;;;-0.30;99.90;;;;;;5074405;28;20051;-66
2022/12/08 06:48:35;;;;;;;35.03;21.98;;;-0.30;99.90;;;;;;5073734;28;20104;-66
2022/12/08 06:51:15;;;;;;;70.78;24.13;;;-0.40;99.90;;;;;;5073927;28;20055;-66
2022/12/08 06:53:42;;;;;;;34.58;22.13;;;-0.40;99.90;;;;;;5074013;28;20446;-66
2022/12/08 06:56:09;;;;;;;51.58;24.25;;;-0.30;99.90;;;;;;5074021;28;20029;-66
2022/12/08 06:58:34;;;;;;;72.60;24.02;;;-0.40;99.90;;;;;;5074057;28;20483;-67
2022/12/08 07:01:08;;;;;;;41.60;22.25;;;-0.40;99.90;;;;;;5073994;28;20056;-66
2022/12/08 07:03:35;;;;;;;35.15;19.67;;;-0.40;99.90;;;;;;5074698;28;20062;-67
2022/12/08 07:06:01;;;;;;;46.00;21.85;;;-0.50;99.90;;;;;;5074041;28;20028;-66
2022/12/08 07:08:26;;;;;;;42.08;21.08;;;-0.50;99.90;;;;;;5074054;28;20021;-67
2022/12/08 07:10:52;;;;;;;36.50;20.42;;;-0.50;99.90;;;;;;5073948;28;20398;-67
2022/12/08 07:13:18;;;;;;;42.42;20.75;;;-0.40;99.90;;;;;;5074098;28;20082;-67
2022/12/08 07:15:43;;;;;;;52.28;22.02;;;-0.30;99.90;;;;;;5074095;28;20036;-66
2022/12/08 07:18:09;;;;;;;43.78;21.40;;;-0.40;99.90;;;;;;5074166;28;20024;-66
2022/12/08 07:20:35;;;;;;;39.75;23.05;;;-0.30;99.90;;;;;;5055588;28;20035;-67
2022/12/08 07:23:00;;;;;;;41.45;23.88;;;-0.40;99.90;;;;;;5073482;28;20029;-67
2022/12/08 07:25:26;;;;;;;68.22;23.65;;;-0.40;99.90;;;;;;5073679;28;20451;-66
2022/12/08 07:27:52;;;;;;;119.93;25.85;;;-0.40;99.90;;;;;;5073934;28;20507;-67
2022/12/08 07:30:18;;;;;;;40.88;26.33;;;-0.50;99.90;;;;;;5073834;28;20107;-66
2022/12/08 07:32:44;;;;;;;98.45;27.33;;;-0.50;99.90;;;;;;5073860;28;20064;-66
2022/12/08 07:35:10;;;;;;;40.50;22.67;;;-0.40;99.90;;;;;;5073604;28;20032;-67
2022/12/08 07:37:36;;;;;;;41.85;22.77;;;-0.40;99.90;;;;;;5073541;28;20028;-67
2022/12/08 07:40:07;;;;;;;78.85;23.83;;;-0.30;99.90;;;;;;5073542;28;20502;-67
2022/12/08 07:42:33;;;;;;;104.53;25.48;;;-0.30;99.90;;;;;;5073592;28;20032;-66
2022/12/08 07:44:59;;;;;;;94.63;23.80;;;-0.50;99.90;;;;;;5073362;28;20024;-66
2022/12/08 07:47:25;;;;;;;41.80;22.67;;;-0.50;99.90;;;;;;5055197;28;20035;-66
2022/12/08 07:49:51;;;;;;;47.65;24.02;;;-0.50;99.90;;;;;;5073490;28;20390;-66
2022/12/08 07:52:16;;;;;;;101.68;28.30;;;-0.30;99.90;;;;;;5073267;28;20021;-66
2022/12/08 07:54:42;;;;;;;78.63;26.25;;;-0.30;99.90;;;;;;5073367;28;20429;-67
2022/12/08 07:57:08;;;;;;;137.93;27.08;;;-0.20;99.90;;;;;;5073822;28;20079;-67
2022/12/08 07:59:34;;;;;;;83.97;25.55;;;-0.20;99.90;;;;;;5058199;28;20028;-67
2022/12/08 08:02:00;;;;;;;106.70;26.50;;;-0.20;99.90;;;;;;5077045;28;20094;-66
2022/12/08 08:04:25;;;;;;;193.45;29.40;;;-0.20;99.90;;;;;;5076928;28;20063;-67
2022/12/08 08:06:51;;;;;;;183.60;29.15;;;-0.10;99.90;;;;;;5077648;28;20031;-66
2022/12/08 08:09:17;;;;;;;103.20;24.08;;;-0.20;99.90;;;;;;5077393;28;20060;-67
2022/12/08 08:11:42;;;;;;;111.03;23.75;;;-0.30;99.90;;;;;;5077232;28;20032;-67
2022/12/08 08:14:08;;;;;;;96.65;23.65;;;-0.20;99.90;;;;;;5076757;28;20017;-67
2022/12/08 08:16:33;;;;;;;191.68;27.60;;;-0.30;99.90;;;;;;5077426;28;20024;-67
2022/12/08 08:18:59;;;;;;;87.90;23.75;;;-0.20;99.90;;;;;;5077073;28;20505;-67
2022/12/08 08:21:25;;;;;;;55.97;24.13;;;-0.10;99.90;;;;;;5077572;28;20059;-66
2022/12/08 08:23:51;;;;;;;85.88;23.98;;;-0.20;99.90;;;;;;5077016;28;20060;-67
2022/12/08 08:26:18;;;;;;;40.72;22.17;;;-0.10;99.90;;;;;;5076705;28;20030;-66
2022/12/08 08:28:44;;;;;;;100.72;23.50;;;0.00;99.90;;;;;;5076821;28;20027;-66
2022/12/08 08:31:11;;;;;;;62.30;20.65;;;0.20;99.90;;;;;;5059082;28;20550;-66
2022/12/08 08:33:36;;;;;;;59.33;20.60;;;0.20;99.90;;;;;;5072592;28;20016;-67
2022/12/08 08:36:07;;;;;;;57.83;19.33;;;0.00;99.90;;;;;;5076510;28;20509;-71
2022/12/08 08:38:32;;;;;;;35.25;19.83;;;0.00;99.90;;;;;;5054981;28;20460;-71
2022/12/08 08:40:58;;;;;;;107.28;22.85;;;0.30;99.90;;;;;;5075377;28;20115;-71
2022/12/08 08:43:29;;;;;;;102.18;19.38;;;0.30;99.90;;;;;;5077022;28;20028;-73
2022/12/08 08:45:57;;;;;;;73.35;19.20;;;0.00;99.90;;;;;;5075093;28;20048;-70
2022/12/08 08:48:23;;;;;;;36.05;18.05;;;0.10;99.90;;;;;;5061659;28;20028;-71
2022/12/08 08:50:48;;;;;;;62.97;19.58;;;0.30;99.90;;;;;;5071771;28;20024;-73
2022/12/08 08:53:14;;;;;;;45.40;19.88;;;0.60;99.90;;;;;;5056482;28;20017;-73
2022/12/08 08:55:40;;;;;;;151.65;20.90;;;0.70;99.90;;;;;;5074344;28;20033;-72
2022/12/08 08:58:05;;;;;;;44.28;18.70;;;0.70;99.90;;;;;;5075733;28;20091;-72
2022/12/08 09:00:31;;;;;;;28.85;16.73;;;0.60;99.90;;;;;;5075741;28;20109;-70
2022/12/08 09:02:57;;;;;;;42.78;17.90;;;0.70;99.90;;;;;;5076501;28;20543;-70
2022/12/08 09:05:22;;;;;;;53.53;17.25;;;1.00;99.90;;;;;;5073370;28;20445;-69
2022/12/08 09:07:48;;;;;;;33.33;16.02;;;0.90;99.90;;;;;;5056183;28;20118;-72
2022/12/08 09:10:14;;;;;;;30.60;16.85;;;1.10;99.90;;;;;;5055594;28;20024;-71
2022/12/08 09:12:39;;;;;;;98.88;18.40;;;1.00;99.90;;;;;;5038452;28;20406;-72
2022/12/08 09:15:05;;;;;;;46.80;18.17;;;1.20;99.90;;;;;;5056483;28;20538;-72
2022/12/08 09:17:31;;;;;;;73.45;18.60;;;1.00;99.90;;;;;;5056048;28;20032;-72
2022/12/08 09:19:57;;;;;;;28.73;17.73;;;0.90;99.90;;;;;;5057912;28;20548;-71
2022/12/08 09:22:22;;;;;;;96.22;19.90;;;1.10;99.90;;;;;;5074738;28;20426;-74
2022/12/08 09:24:48;;;;;;;25.80;16.77;;;1.20;99.90;;;;;;5065796;28;20021;-74
2022/12/08 09:27:14;;;;;;;55.90;18.27;;;1.50;99.90;;;;;;5068506;28;20116;-71
2022/12/08 09:29:39;;;;;;;29.38;17.13;;;1.50;99.90;;;;;;5056219;28;20020;-71
2022/12/08 09:32:05;;;;;;;43.97;19.02;;;1.50;99.90;;;;;;5056782;28;20703;-66
2022/12/08 09:34:31;;;;;;;55.58;19.20;;;1.30;99.90;;;;;;5074001;28;20112;-72
2022/12/08 09:36:56;;;;;;;77.03;21.15;;;1.10;99.90;;;;;;5076143;28;20029;-75
2022/12/08 09:39:22;;;;;;;120.03;21.67;;;1.00;99.90;;;;;;5075400;28;20036;-73
2022/12/08 09:41:58;;;;;;;40.85;18.63;;;0.90;99.90;;;;;;5075254;28;20035;-71
2022/12/08 09:44:56;;;;;;;28.33;18.38;;;0.80;99.90;;;;;;5075355;28;20085;-71
2022/12/08 09:47:42;;;;;;;65.95;18.10;;;1.00;99.90;;;;;;5065482;28;20048;-70
2022/12/08 09:50:26;;;;;;;121.50;20.25;;;1.00;99.90;;;;;;5066840;28;20035;-69
2022/12/08 09:53:07;;;;;;;28.27;17.48;;;1.00;99.90;;;;;;5055789;28;20032;-69
2022/12/08 09:55:52;;;;;;;90.07;20.23;;;1.20;99.90;;;;;;5055538;28;20021;-70
2022/12/08 09:58:41;;;;;;;27.42;16.63;;;1.40;99.90;;;;;;5067002;28;20035;-70
2022/12/08 10:01:11;;;;;;;33.03;16.58;;;1.50;99.90;;;;;;5075016;28;20079;-70
2022/12/08 10:03:36;;;;;;;78.88;18.95;;;1.60;99.90;;;;;;5057039;28;20479;-70
2022/12/08 10:06:20;;;;;;;131.02;18.70;;;1.50;99.90;;;;;;5072206;28;20082;-71
2022/12/08 10:09:13;;;;;;;64.40;16.58;;;1.40;99.90;;;;;;5075150;28;20462;-68
2022/12/08 10:11:52;;;;;;;45.60;16.85;;;1.50;99.90;;;;;;5075032;28;20052;-66
2022/12/08 10:14:33;;;;;;;28.38;16.35;;;2.00;99.90;;;;;;5045049;28;20021;-67
2022/12/08 10:17:22;;;;;;;35.08;15.63;;;2.40;99.90;;;;;;5057398;28;20153;-72
2022/12/08 10:19:52;;;;;;;41.38;14.95;;;2.90;99.90;;;;;;5061175;28;20401;-71
2022/12/08 10:22:22;;;;;;;;;;;3.30;99.90;;;;;;5061671;28;20464;-72
2022/12/08 10:24:58;;;;;;;64.65;15.90;;;3.10;99.90;;;;;;5074398;28;20463;-70
2022/12/08 10:27:24;;;;;;;39.42;15.80;;;3.20;99.90;;;;;;5074054;28;20024;-67
2022/12/08 10:29:50;;;;;;;24.95;15.85;;;3.20;99.90;;;;;;5077285;28;20032;-70
2022/12/08 10:32:22;;;;;;;54.72;16.75;;;3.00;99.90;;;;;;5066108;28;20021;-75
2022/12/08 10:34:59;;;;;;;57.85;18.83;;;2.80;99.90;;;;;;5036554;28;20039;-70
2022/12/08 10:37:25;;;;;;;97.85;19.45;;;2.80;99.90;;;;;;5054929;28;20025;-70
2022/12/08 10:40:04;;;;;;;52.75;17.63;;;2.50;99.90;;;;;;5060918;28;20037;-72
2022/12/08 10:42:40;;;;;;;35.58;16.75;;;2.20;99.90;;;;;;5078714;28;20042;-73
2022/12/08 10:45:09;;;;;;;32.38;18.05;;;2.20;99.90;;;;;;5058973;28;20072;-72
2022/12/08 10:47:38;;;;;;;44.03;16.55;;;2.20;99.90;;;;;;5073985;28;20063;-70
2022/12/08 10:50:28;;;;;;;49.83;17.10;;;2.30;99.90;;;;;;5070813;28;20028;-71
2022/12/08 10:52:57;;;;;;;30.75;15.88;;;2.40;99.90;;;;;;5072596;28;20032;-69
2022/12/08 11:06:08;;;;;;;54.47;18.60;;;2.20;99.90;;;;;;6106648;22;2930831;-70
2022/12/08 11:08:44;;;;;;;58.03;17.80;;;1.60;99.90;;;;;;6225338;23;20048;-70
2022/12/08 11:11:10;;;;;;;53.88;18.77;;;1.90;99.90;;;;;;6224997;23;20004;-71
2022/12/08 11:13:40;;;;;;;30.33;17.02;;;2.20;99.90;;;;;;6224745;23;20008;-72
2022/12/08 11:16:07;;;;;;;40.90;18.67;;;2.10;99.90;;;;;;6224881;23;19996;-74
2022/12/08 11:18:43;;;;;;;46.47;17.95;;;2.30;99.90;;;;;;6224847;23;20428;-72
2022/12/08 11:21:16;;;;;;;71.45;21.25;;;2.40;99.90;;;;;;6221960;23;20008;-66
2022/12/08 11:23:48;;;;;;;49.78;19.02;;;2.40;99.90;;;;;;6225214;23;20067;-66
2022/12/08 11:26:26;;;;;;;38.58;20.55;;;2.30;99.90;;;;;;6225040;23;20386;-66
2022/12/08 11:28:52;;;;;;;35.63;19.55;;;2.40;99.90;;;;;;6224934;23;20011;-67
2022/12/08 11:31:39;;;;;;;46.97;19.80;;;2.60;99.90;;;;;;6225028;23;20008;-65
2022/12/08 11:34:10;;;;;;;39.47;18.17;;;2.50;99.90;;;;;;6225065;23;20086;-68
2022/12/08 11:36:36;;;;;;;;;;;2.50;99.90;;;;;;6225276;23;20387;-68
2022/12/08 11:39:03;;;;;;;59.97;19.48;;;2.60;99.90;;;;;;6225352;23;19923;-67
2022/12/08 11:41:38;;;;;;;91.60;21.10;;;2.60;99.90;;;;;;6224696;23;20006;-68
2022/12/08 11:44:19;;;;;;;58.33;17.00;;;2.50;99.90;;;;;;6223662;23;20001;-67
2022/12/08 11:46:57;;;;;;;55.33;18.10;;;2.50;99.90;;;;;;6224987;23;20020;-68
2022/12/08 11:49:36;;;;;;;58.42;16.73;;;2.50;99.90;;;;;;6225301;23;20015;-68
2022/12/08 11:52:25;;;;;;;49.53;16.10;;;2.50;99.90;;;;;;6225281;23;20000;-68
2022/12/08 11:55:04;;;;;;;44.70;15.35;;;2.50;99.90;;;;;;6224809;23;20062;-67
2022/12/08 11:57:29;;;;;;;31.02;15.02;;;2.40;99.90;;;;;;6224685;23;20028;-67
2022/12/08 12:00:00;;;;;;;36.72;15.60;;;2.50;99.90;;;;;;6224845;23;20374;-68
2022/12/08 12:02:34;;;;;;;51.22;17.77;;;2.60;99.90;;;;;;6224571;23;20003;-67
2022/12/08 12:05:08;;;;;;;46.97;16.83;;;2.50;99.90;;;;;;6222899;23;20324;-67
2022/12/08 12:08:05;;;;;;;78.22;16.85;;;2.50;99.90;;;;;;6217778;23;20012;-68
2022/12/08 12:10:45;;;;;;;66.32;18.60;;;2.50;99.90;;;;;;6218362;23;20080;-66
2022/12/08 12:13:44;;;;;;;48.75;15.48;;;2.10;99.90;;;;;;6217924;23;20000;-69
2022/12/08 12:16:13;;;;;;;46.38;15.82;;;2.20;99.90;;;;;;6218371;23;20067;-68
2022/12/08 12:18:45;;;;;;;73.88;18.90;;;2.00;99.90;;;;;;6217586;23;20308;-68
2022/12/08 12:21:18;;;;;;;55.97;16.95;;;1.80;99.90;;;;;;6217624;23;20012;-68
2022/12/08 12:23:57;;;;;;;43.50;18.63;;;1.90;99.90;;;;;;6217913;23;20008;-68
2022/12/08 12:26:26;;;;;;;54.70;19.00;;;2.00;99.90;;;;;;6217582;23;20004;-68
2022/12/08 12:29:02;;;;;;;47.05;16.38;;;2.00;99.90;;;;;;6217426;23;20435;-68
2022/12/08 12:31:31;;;;;;;72.70;19.23;;;2.20;99.90;;;;;;6217531;23;20001;-67
2022/12/08 12:34:09;;;;;;;86.78;20.35;;;2.30;99.90;;;;;;6217458;23;20008;-67
2022/12/08 12:36:57;;;;;;;37.47;16.25;;;2.20;99.90;;;;;;6217392;23;20132;-67
2022/12/08 12:39:29;;;;;;;42.97;16.38;;;2.20;99.90;;;;;;6217814;23;20005;-68
2022/12/08 12:42:00;;;;;;;37.28;17.25;;;2.20;99.90;;;;;;6217704;23;19997;-68
2022/12/08 12:44:32;;;;;;;47.05;16.88;;;2.30;99.90;;;;;;6217783;23;20004;-66
2022/12/08 12:47:04;;;;;;;36.17;16.63;;;2.30;99.90;;;;;;6217333;23;20008;-67
2022/12/08 12:49:39;;;;;;;50.10;17.25;;;2.40;99.90;;;;;;6240967;23;20482;-66
2022/12/08 12:52:17;;;;;;;42.10;17.02;;;2.30;99.90;;;;;;6217243;23;20008;-68
2022/12/08 12:55:04;;;;;;;36.63;17.45;;;2.40;99.90;;;;;;6217166;23;20009;-67
2022/12/08 12:57:53;;;;;;;58.53;17.30;;;2.60;99.90;;;;;;6217343;23;20028;-67
2022/12/08 13:00:25;;;;;;;44.25;15.90;;;2.40;99.90;;;;;;6217462;23;20005;-67
2022/12/08 13:02:53;;;;;;;37.17;15.82;;;2.70;99.90;;;;;;6217500;23;20007;-68
2022/12/08 13:05:33;;;;;;;43.28;16.77;;;2.60;99.90;;;;;;6216832;23;20029;-68
2022/12/08 13:08:06;;;;;;;26.58;14.25;;;2.70;99.90;;;;;;6217912;23;20005;-67